createdAt,value
2022-10-03T00:01:37.502Z,14.40
2022-10-03T00:04:07.972Z,11.32
2022-10-03T00:06:57.968Z,10.48
2022-10-03T00:09:26.678Z,11.27
2022-10-03T00:11:59.762Z,11.05
2022-10-03T00:15:01.051Z,12.68
2022-10-03T00:17:45.549Z,11.55
2022-10-03T00:20:15.808Z,10.52
2022-10-03T00:23:04.571Z,10.68
2022-10-03T00:25:35.331Z,11.38
2022-10-03T00:28:44.547Z,11.82
2022-10-03T00:31:18.794Z,10.27
2022-10-03T00:34:21.609Z,12.30
2022-10-03T00:37:12.256Z,9.35
2022-10-03T00:40:16.467Z,9.35
2022-10-03T00:43:01.392Z,11.13
2022-10-03T00:45:58.865Z,9.77
2022-10-03T00:48:29.087Z,10.15
2022-10-03T00:51:03.147Z,8.65
2022-10-03T00:53:56.141Z,8.40
2022-10-03T00:56:32.479Z,9.23
2022-10-03T00:59:38.348Z,7.87
2022-10-03T01:02:30.325Z,8.15
2022-10-03T01:05:33.779Z,8.38
2022-10-03T01:08:04.033Z,8.30
2022-10-03T01:10:37.416Z,8.73
2022-10-03T01:13:26.673Z,11.45
2022-10-03T01:16:18.512Z,11.98
2022-10-03T01:18:57.829Z,9.52
2022-10-03T01:21:46.239Z,9.70
2022-10-03T01:24:45.845Z,8.85
2022-10-03T01:27:56.853Z,8.82
2022-10-03T01:30:24.454Z,9.00
2022-10-03T01:33:00.810Z,9.63
2022-10-03T01:36:03.259Z,9.75
2022-10-03T01:38:53.832Z,8.63
2022-10-03T01:41:27.139Z,8.82
2022-10-03T01:44:11.683Z,8.77
2022-10-03T01:46:46.643Z,10.68
2022-10-03T01:49:43.149Z,9.23
2022-10-03T01:52:35.180Z,8.38
2022-10-03T01:55:25.583Z,8.18
2022-10-03T01:58:13.264Z,9.40
2022-10-03T02:03:36.328Z,8.85
2022-10-03T02:06:21.511Z,8.27
2022-10-03T02:08:54.861Z,7.90
2022-10-03T02:11:30.235Z,7.65
2022-10-03T02:14:20.327Z,8.20
2022-10-03T02:17:05.148Z,7.30
2022-10-03T02:19:48.999Z,6.85
2022-10-03T02:22:35.054Z,7.60
2022-10-03T02:25:35.558Z,7.43
2022-10-03T02:28:36.793Z,7.55
2022-10-03T02:31:32.410Z,6.72
2022-10-03T02:34:29.962Z,7.20
2022-10-03T02:37:18.724Z,8.77
2022-10-03T02:40:05.048Z,7.15
2022-10-03T02:42:59.963Z,7.43
2022-10-03T02:45:58.232Z,7.18
2022-10-03T02:51:36.360Z,6.68
2022-10-03T02:54:31.706Z,7.18
2022-10-03T02:57:20.864Z,7.13
2022-10-03T03:00:14.702Z,8.18
2022-10-03T03:03:01.463Z,6.57
2022-10-03T03:06:05.560Z,6.60
2022-10-03T03:08:54.767Z,7.68
2022-10-03T03:11:50.839Z,6.18
2022-10-03T03:14:52.399Z,6.45
2022-10-03T03:17:34.083Z,7.45
2022-10-03T03:20:29.359Z,6.07
2022-10-03T03:23:09.424Z,6.25
2022-10-03T03:25:55.446Z,7.22
2022-10-03T03:28:47.126Z,6.43
2022-10-03T03:31:19.026Z,6.43
2022-10-03T03:34:02.324Z,8.15
2022-10-03T03:36:38.759Z,6.40
2022-10-03T03:39:27.702Z,7.03
2022-10-03T03:42:40.347Z,5.80
2022-10-03T03:45:41.800Z,5.75
2022-10-03T03:48:31.140Z,6.30
2022-10-03T03:51:19.607Z,8.77
2022-10-03T03:54:03.671Z,6.15
2022-10-03T03:56:39.922Z,9.50
2022-10-03T03:59:22.386Z,7.82
2022-10-03T04:02:05.406Z,6.68
2022-10-03T04:04:55.866Z,9.10
2022-10-03T04:07:44.766Z,7.55
2022-10-03T04:10:31.984Z,8.30
2022-10-03T04:13:23.857Z,9.38
2022-10-03T04:15:59.808Z,8.80
2022-10-03T04:18:59.826Z,11.30
2022-10-03T04:21:39.941Z,10.77
2022-10-03T04:24:32.226Z,11.07
2022-10-03T04:27:31.383Z,11.23
2022-10-03T04:30:18.875Z,13.00
2022-10-03T04:32:52.508Z,13.20
2022-10-03T04:35:52.409Z,13.18
2022-10-03T04:39:16.658Z,12.30
2022-10-03T04:41:53.172Z,11.50
2022-10-03T04:44:33.156Z,10.70
2022-10-03T04:47:16.866Z,14.88
2022-10-03T04:49:53.138Z,15.57
2022-10-03T04:52:39.540Z,11.77
2022-10-03T04:55:30.172Z,15.07
2022-10-03T04:58:20.422Z,10.65
2022-10-03T05:01:15.416Z,13.32
2022-10-03T05:03:53.335Z,14.00
2022-10-03T05:06:42.036Z,10.18
2022-10-03T05:09:40.091Z,14.55
2022-10-03T05:12:13.010Z,11.43
2022-10-03T05:15:12.673Z,10.05
2022-10-03T05:18:11.463Z,10.63
2022-10-03T05:20:51.948Z,9.32
2022-10-03T05:24:03.040Z,8.93
2022-10-03T05:26:44.590Z,8.13
2022-10-03T05:29:37.491Z,7.75
2022-10-03T05:32:27.057Z,8.02
2022-10-03T05:35:12.422Z,9.55
2022-10-03T05:37:52.412Z,12.38
2022-10-03T05:40:28.780Z,11.68
2022-10-03T05:43:23.847Z,11.05
2022-10-03T05:46:12.354Z,12.32
2022-10-03T05:48:48.124Z,9.57
2022-10-03T05:51:18.357Z,11.35
2022-10-03T05:54:00.617Z,9.52
2022-10-03T05:56:38.951Z,7.55
2022-10-03T05:59:20.312Z,8.15
2022-10-03T06:01:50.565Z,7.90
2022-10-03T06:04:39.263Z,12.70
2022-10-03T06:07:39.057Z,11.65
2022-10-03T06:10:29.396Z,8.52
2022-10-03T06:13:15.472Z,10.00
2022-10-03T06:15:42.928Z,8.02
2022-10-03T06:18:32.375Z,7.97
2022-10-03T06:21:08.608Z,10.23
2022-10-03T06:24:14.345Z,8.05
2022-10-03T06:27:19.031Z,10.20
2022-10-03T06:30:26.070Z,8.32
2022-10-03T06:33:24.484Z,8.40
2022-10-03T06:35:54.646Z,10.43
2022-10-03T06:38:36.490Z,8.23
2022-10-03T06:41:39.249Z,7.70
2022-10-03T06:44:12.678Z,6.47
2022-10-03T06:46:45.700Z,10.85
2022-10-03T06:49:34.112Z,10.38
2022-10-03T06:52:15.323Z,8.00
2022-10-03T06:54:48.834Z,10.93
2022-10-03T06:57:40.808Z,9.55
2022-10-03T07:00:11.879Z,9.43
2022-10-03T07:03:21.697Z,8.27
2022-10-03T07:06:11.913Z,9.77
2022-10-03T07:08:45.424Z,14.55
2022-10-03T07:11:31.473Z,8.30
2022-10-03T07:14:18.761Z,7.97
2022-10-03T07:17:15.793Z,8.60
2022-10-03T07:19:55.043Z,8.82
2022-10-03T07:23:15.959Z,12.52
2022-10-03T07:25:55.706Z,15.48
2022-10-03T07:28:48.617Z,9.40
2022-10-03T07:31:37.913Z,11.05
2022-10-03T07:34:20.446Z,9.30
2022-10-03T07:37:32.695Z,7.80
2022-10-03T07:40:20.350Z,9.10
2022-10-03T07:45:37.581Z,10.10
2022-10-03T07:48:42.453Z,7.60
2022-10-03T07:51:15.074Z,5.85
2022-10-03T07:54:05.663Z,7.32
2022-10-03T07:56:35.914Z,8.02
2022-10-03T07:59:41.180Z,6.15
2022-10-03T08:02:39.301Z,9.65
2022-10-03T08:05:39.738Z,10.07
2022-10-03T08:08:25.198Z,6.28
2022-10-03T08:11:14.196Z,6.32
2022-10-03T08:13:44.497Z,5.75
2022-10-03T08:16:40.093Z,6.22
2022-10-03T08:19:35.169Z,6.28
2022-10-03T08:22:25.634Z,4.95
2022-10-03T08:25:30.203Z,6.70
2022-10-03T08:27:58.802Z,3.90
2022-10-03T08:30:48.252Z,5.63
2022-10-03T08:33:25.105Z,5.28
2022-10-03T08:36:14.480Z,7.93
2022-10-03T08:38:59.752Z,6.15
2022-10-03T08:41:58.043Z,9.77
2022-10-03T08:44:30.470Z,5.90
2022-10-03T08:47:25.344Z,9.10
2022-10-03T08:50:05.826Z,4.63
2022-10-03T08:52:51.857Z,8.15
2022-10-03T08:55:32.490Z,3.63
2022-10-03T08:58:26.902Z,6.65
2022-10-03T09:01:28.108Z,2.45
2022-10-03T09:04:51.499Z,4.72
2022-10-03T09:07:22.258Z,3.90
2022-10-03T09:10:19.417Z,6.22
2022-10-03T09:13:14.479Z,3.35
2022-10-03T09:15:41.947Z,4.45
2022-10-03T09:18:46.784Z,6.82
2022-10-03T09:21:37.407Z,9.40
2022-10-03T09:24:53.155Z,5.45
2022-10-03T09:27:43.375Z,3.22
2022-10-03T09:30:16.768Z,5.78
2022-10-03T09:32:47.280Z,2.75
2022-10-03T09:35:39.274Z,2.88
2022-10-03T09:38:31.342Z,3.40
2022-10-03T09:41:46.329Z,3.17
2022-10-03T09:44:25.398Z,4.30
2022-10-03T09:47:28.414Z,2.70
2022-10-03T09:50:21.225Z,2.20
2022-10-03T09:53:16.315Z,2.88
2022-10-03T09:56:02.683Z,5.88
2022-10-03T09:58:56.095Z,3.25
2022-10-03T10:01:32.890Z,3.58
2022-10-03T10:04:37.811Z,2.15
2022-10-03T10:07:35.730Z,5.28
2022-10-03T10:10:36.965Z,9.23
2022-10-03T10:13:13.206Z,5.00
2022-10-03T10:16:19.132Z,4.80
2022-10-03T10:19:11.640Z,5.35
2022-10-03T10:21:51.255Z,1.25
2022-10-03T10:24:30.579Z,1.73
2022-10-03T10:27:28.529Z,1.02
2022-10-03T10:30:01.807Z,1.48
2022-10-03T10:33:02.920Z,2.05
2022-10-03T10:35:51.940Z,1.23
2022-10-03T10:38:25.321Z,1.23
2022-10-03T10:41:25.175Z,2.05
2022-10-03T10:44:07.974Z,2.10
2022-10-03T10:47:13.923Z,3.08
2022-10-03T10:50:08.584Z,3.35
2022-10-03T10:53:09.770Z,0.93
2022-10-03T10:56:00.253Z,1.70
2022-10-03T10:58:46.685Z,1.85
2022-10-03T11:01:56.888Z,1.83
2022-10-03T11:04:49.225Z,3.58
2022-10-03T11:07:31.315Z,2.60
2022-10-03T11:10:10.823Z,2.45
2022-10-03T11:13:00.945Z,6.30
2022-10-03T11:15:47.732Z,1.70
2022-10-03T11:18:50.302Z,4.63
2022-10-03T11:21:45.766Z,1.65
2022-10-03T11:24:37.709Z,2.13
2022-10-03T11:27:35.650Z,1.60
2022-10-03T11:30:21.211Z,2.10
2022-10-03T11:32:57.657Z,11.70
2022-10-03T11:35:31.193Z,3.33
2022-10-03T11:38:26.263Z,2.58
2022-10-03T11:41:08.752Z,4.22
2022-10-03T11:43:45.268Z,2.92
2022-10-03T11:46:54.426Z,1.52
2022-10-03T11:49:40.435Z,1.90
2022-10-03T11:52:39.130Z,0.93
2022-10-03T11:55:30.494Z,1.85
2022-10-03T11:58:24.023Z,1.30
2022-10-03T12:01:11.303Z,2.03
2022-10-03T12:04:05.320Z,2.58
2022-10-03T12:07:14.999Z,1.85
2022-10-03T12:10:09.818Z,1.27
2022-10-03T12:12:52.272Z,1.13
2022-10-03T12:15:28.494Z,1.95
2022-10-03T12:18:09.692Z,1.33
2022-10-03T12:21:05.419Z,2.85
2022-10-03T12:23:33.046Z,4.40
2022-10-03T12:26:03.162Z,1.63
2022-10-03T12:28:42.945Z,1.42
2022-10-03T12:31:30.086Z,4.00
2022-10-03T12:34:20.198Z,5.80
2022-10-03T12:37:09.010Z,3.60
2022-10-03T12:40:00.951Z,1.17
2022-10-03T12:43:05.441Z,1.10
2022-10-03T12:45:50.944Z,2.75
2022-10-03T12:48:30.046Z,3.58
2022-10-03T12:51:06.771Z,3.00
2022-10-03T12:54:12.581Z,0.50
2022-10-03T12:56:50.313Z,0.63
2022-10-03T12:59:42.025Z,0.93
2022-10-03T13:02:18.515Z,1.83
2022-10-03T13:05:10.377Z,2.70
2022-10-03T13:08:03.934Z,1.00
2022-10-03T13:10:47.874Z,2.60
2022-10-03T13:13:42.914Z,4.40
2022-10-03T13:16:16.559Z,1.67
2022-10-03T13:18:51.841Z,1.58
2022-10-03T13:21:44.534Z,3.58
2022-10-03T13:24:47.095Z,1.25
2022-10-03T13:27:40.447Z,2.20
2022-10-03T13:30:22.882Z,2.70
2022-10-03T13:32:56.190Z,4.05
2022-10-03T13:35:48.904Z,3.58
2022-10-03T13:38:37.175Z,4.03
2022-10-03T13:41:50.202Z,1.75
2022-10-03T13:44:23.824Z,0.98
2022-10-03T13:46:58.209Z,1.45
2022-10-03T13:49:36.007Z,2.78
2022-10-03T13:52:34.086Z,0.82
2022-10-03T13:55:28.712Z,1.63
2022-10-03T13:58:11.676Z,2.38
2022-10-03T14:01:13.706Z,2.47
2022-10-03T14:04:06.814Z,3.53
2022-10-03T14:06:48.321Z,0.77
2022-10-03T14:09:41.521Z,0.90
2022-10-03T14:12:51.004Z,2.78
2022-10-03T14:15:42.730Z,4.18
2022-10-03T14:18:33.847Z,1.15
2022-10-03T14:21:40.101Z,2.42
2022-10-03T14:24:43.188Z,0.77
2022-10-03T14:27:34.714Z,0.73
2022-10-03T14:30:31.480Z,1.13
2022-10-03T14:33:12.158Z,2.28
2022-10-03T14:36:08.813Z,0.90
2022-10-03T14:39:03.425Z,1.25
2022-10-03T14:41:49.524Z,1.52
2022-10-03T14:44:22.674Z,2.38
2022-10-03T14:47:02.986Z,3.42
2022-10-03T14:49:53.506Z,2.72
2022-10-03T14:52:29.066Z,1.17
2022-10-03T14:55:02.774Z,3.20
2022-10-03T14:57:53.212Z,1.95
2022-10-03T15:00:35.479Z,1.52
2022-10-03T15:03:22.703Z,0.88
2022-10-03T15:05:53.419Z,2.67
2022-10-03T15:08:22.663Z,3.40
2022-10-03T15:10:55.972Z,1.48
2022-10-03T15:13:27.545Z,4.32
2022-10-03T15:15:56.916Z,1.58
2022-10-03T15:18:25.550Z,1.80
2022-10-03T15:20:57.777Z,2.55
2022-10-03T15:23:39.759Z,1.35
2022-10-03T15:26:18.292Z,2.28
2022-10-03T15:28:50.167Z,1.75
2022-10-03T15:31:34.052Z,2.15
2022-10-03T15:34:05.052Z,1.58
2022-10-03T15:36:38.669Z,1.50
2022-10-03T15:39:19.362Z,1.25
2022-10-03T15:42:06.325Z,1.85
2022-10-03T15:44:40.134Z,2.07
2022-10-03T15:47:27.414Z,2.05
2022-10-03T15:50:00.578Z,2.05
2022-10-03T15:52:33.395Z,1.20
2022-10-03T15:55:12.825Z,1.60
2022-10-03T15:57:46.383Z,1.10
2022-10-03T16:00:27.834Z,2.58
2022-10-03T16:03:21.969Z,2.15
2022-10-03T16:06:02.801Z,1.65
2022-10-03T16:08:36.265Z,1.25
2022-10-03T16:11:26.674Z,1.70
2022-10-03T16:14:12.872Z,3.95
2022-10-03T16:16:54.240Z,3.72
2022-10-03T16:19:28.088Z,1.25
2022-10-03T16:22:14.074Z,1.13
2022-10-03T16:25:17.965Z,1.15
2022-10-03T16:27:56.908Z,2.22
2022-10-03T16:30:31.178Z,1.52
2022-10-03T16:33:23.984Z,2.40
2022-10-03T16:35:55.043Z,0.77
2022-10-03T16:38:26.017Z,1.75
2022-10-03T16:41:00.025Z,3.15
2022-10-03T16:43:32.309Z,2.22
2022-10-03T16:46:04.348Z,3.35
2022-10-03T16:49:04.060Z,3.15
2022-10-03T16:51:42.033Z,2.10
2022-10-03T16:54:21.752Z,2.42
2022-10-03T16:56:57.149Z,1.70
2022-10-03T16:59:29.062Z,3.08
2022-10-03T17:02:02.146Z,1.70
2022-10-03T17:04:37.333Z,2.15
2022-10-03T17:07:18.893Z,3.95
2022-10-03T17:09:49.858Z,1.58
2022-10-03T17:12:24.687Z,1.88
2022-10-03T17:14:56.207Z,1.30
2022-10-03T17:17:48.057Z,1.30
2022-10-03T17:20:19.698Z,2.78
2022-10-03T17:23:02.710Z,1.92
2022-10-03T17:25:51.220Z,1.38
2022-10-03T17:29:06.689Z,3.33
2022-10-03T17:31:45.257Z,1.35
2022-10-03T17:34:17.090Z,2.60
2022-10-03T17:37:07.279Z,1.13
2022-10-03T17:40:05.582Z,1.70
2022-10-03T17:42:42.861Z,1.65
2022-10-03T17:48:04.546Z,2.47
2022-10-03T17:50:54.963Z,5.18
2022-10-03T17:53:28.863Z,4.15
2022-10-03T17:56:01.480Z,0.70
2022-10-03T17:58:31.615Z,2.95
2022-10-03T18:01:02.174Z,4.85
2022-10-03T18:03:46.747Z,2.33
2022-10-03T18:06:32.539Z,3.10
2022-10-03T18:09:06.707Z,2.53
2022-10-03T18:11:39.738Z,2.83
2022-10-03T18:14:37.803Z,1.58
2022-10-03T18:17:36.453Z,2.13
2022-10-03T18:20:28.567Z,3.83
2022-10-03T18:23:02.908Z,1.60
2022-10-03T18:29:12.043Z,11.65
2022-10-03T18:31:53.075Z,2.67
2022-10-03T18:34:28.870Z,4.30
2022-10-03T18:36:58.581Z,1.88
2022-10-03T18:39:34.153Z,1.88
2022-10-03T18:42:02.937Z,1.90
2022-10-03T18:44:32.626Z,1.25
2022-10-03T18:47:28.825Z,2.42
2022-10-03T18:50:11.665Z,2.00
2022-10-03T18:52:52.716Z,1.40
2022-10-03T18:55:42.979Z,2.65
2022-10-03T18:58:27.095Z,1.42
2022-10-03T19:01:06.783Z,3.15
2022-10-03T19:03:49.889Z,1.42
2022-10-03T19:06:41.198Z,1.23
2022-10-03T19:09:28.177Z,1.30
2022-10-03T19:12:18.991Z,1.40
2022-10-03T19:15:19.033Z,0.98
2022-10-03T19:17:49.401Z,1.67
2022-10-03T19:20:28.743Z,1.92
2022-10-03T19:23:11.756Z,3.38
2022-10-03T19:25:41.846Z,2.25
2022-10-03T19:28:28.838Z,1.30
2022-10-03T19:31:02.359Z,4.00
2022-10-03T19:33:32.362Z,1.88
2022-10-03T19:36:05.041Z,1.50
2022-10-03T19:38:38.348Z,1.95
2022-10-03T19:41:31.226Z,4.78
2022-10-03T19:44:14.059Z,6.00
2022-10-03T19:46:47.240Z,3.53
2022-10-03T19:49:20.468Z,1.90
2022-10-03T19:51:49.067Z,2.72
2022-10-03T19:54:43.501Z,2.42
2022-10-03T19:57:21.046Z,2.53
2022-10-03T20:02:23.896Z,1.30
2022-10-03T20:05:37.780Z,1.52
2022-10-03T20:08:23.131Z,5.95
2022-10-03T20:11:13.659Z,3.78
2022-10-03T20:13:48.002Z,4.18
2022-10-03T20:16:18.466Z,1.70
2022-10-03T20:18:50.470Z,4.30
2022-10-03T20:21:22.814Z,1.83
2022-10-03T20:23:52.838Z,3.95
2022-10-03T20:26:36.205Z,2.63
2022-10-03T20:29:09.594Z,1.42
2022-10-03T20:31:38.672Z,1.65
2022-10-03T20:34:23.279Z,1.40
2022-10-03T20:37:03.562Z,1.20
2022-10-03T20:39:39.674Z,2.50
2022-10-03T20:42:18.828Z,1.33
2022-10-03T20:44:56.744Z,1.65
2022-10-03T20:47:49.017Z,4.78
2022-10-03T20:50:19.306Z,3.60
2022-10-03T20:52:56.964Z,1.50
2022-10-03T20:55:29.840Z,5.78
2022-10-03T20:58:11.947Z,1.42
2022-10-03T21:00:47.717Z,1.55
2022-10-03T21:03:18.135Z,5.35
2022-10-03T21:05:50.803Z,4.13
2022-10-03T21:08:38.097Z,7.10
